sensor_id;sensor_type;location;lat;lon;timestamp;temperature;humidity
284;DHT22;125;52.516;13.426;2022-08-03T16:52:28;31.30;1.00
284;DHT22;125;52.516;13.426;2022-08-03T16:54:55;31.40;1.00
284;DHT22;125;52.516;13.426;2022-08-03T16:57:21;31.30;1.00
284;DHT22;125;52.516;13.426;2022-08-03T16:59:48;31.20;1.00
284;DHT22;125;52.516;13.426;2022-08-03T17:02:20;31.30;1.00
284;DHT22;125;52.516;13.426;2022-08-03T17:04:47;31.20;1.00
284;DHT22;125;52.516;13.426;2022-08-03T17:07:13;31.30;1.00
284;DHT22;125;52.516;13.426;2022-08-03T17:09:40;31.30;1.00
284;DHT22;125;52.516;13.426;2022-08-03T17:12:08;31.20;1.00
284;DHT22;125;52.516;13.426;2022-08-03T17:14:34;31.10;1.00
284;DHT22;125;52.516;13.426;2022-08-03T17:17:03;31.10;1.00
284;DHT22;125;52.516;13.426;2022-08-03T17:19:34;31.10;1.00
284;DHT22;125;52.516;13.426;2022-08-03T17:22:09;31.00;1.00
284;DHT22;125;52.516;13.426;2022-08-03T17:24:39;30.90;1.00
284;DHT22;125;52.516;13.426;2022-08-03T17:27:07;30.60;1.00
284;DHT22;125;52.516;13.426;2022-08-03T17:29:37;30.40;1.00
284;DHT22;125;52.516;13.426;2022-08-03T17:32:04;30.30;1.00
284;DHT22;125;52.516;13.426;2022-08-03T17:34:30;30.30;1.00
284;DHT22;125;52.516;13.426;2022-08-03T17:36:59;30.20;1.00
284;DHT22;125;52.516;13.426;2022-08-03T17:39:25;30.00;1.00
284;DHT22;125;52.516;13.426;2022-08-03T17:41:52;29.90;1.00
284;DHT22;125;52.516;13.426;2022-08-03T17:44:20;30.00;1.00
284;DHT22;125;52.516;13.426;2022-08-03T17:46:46;29.90;1.00
284;DHT22;125;52.516;13.426;2022-08-03T17:49:15;29.70;1.00
284;DHT22;125;52.516;13.426;2022-08-03T17:51:44;29.70;1.00
284;DHT22;125;52.516;13.426;2022-08-03T17:54:17;29.70;1.00
284;DHT22;125;52.516;13.426;2022-08-03T17:56:52;29.60;1.00
284;DHT22;125;52.516;13.426;2022-08-03T17:59:27;29.60;1.00
284;DHT22;125;52.516;13.426;2022-08-03T18:01:57;29.60;1.00
284;DHT22;125;52.516;13.426;2022-08-03T18:04:47;29.60;1.00
284;DHT22;125;52.516;13.426;2022-08-03T18:07:15;29.60;1.00
284;DHT22;125;52.516;13.426;2022-08-03T18:09:48;29.40;1.00
284;DHT22;125;52.516;13.426;2022-08-03T18:12:21;29.40;1.00
284;DHT22;125;52.516;13.426;2022-08-03T18:14:54;29.20;1.00
284;DHT22;125;52.516;13.426;2022-08-03T18:17:27;29.10;1.00
284;DHT22;125;52.516;13.426;2022-08-03T18:19:55;29.00;1.00
284;DHT22;125;52.516;13.426;2022-08-03T18:22:22;28.90;1.00
284;DHT22;125;52.516;13.426;2022-08-03T18:24:53;28.90;1.00
284;DHT22;125;52.516;13.426;2022-08-03T18:27:20;28.80;1.00
284;DHT22;125;52.516;13.426;2022-08-03T18:29:47;28.70;1.00
284;DHT22;125;52.516;13.426;2022-08-03T18:32:14;28.70;1.00
284;DHT22;125;52.516;13.426;2022-08-03T18:34:42;28.60;1.00
284;DHT22;125;52.516;13.426;2022-08-03T18:37:09;28.50;1.00
284;DHT22;125;52.516;13.426;2022-08-03T18:39:38;28.40;1.00
284;DHT22;125;52.516;13.426;2022-08-03T18:42:08;28.30;1.00
284;DHT22;125;52.516;13.426;2022-08-03T18:44:35;28.20;1.00
284;DHT22;125;52.516;13.426;2022-08-03T18:47:17;28.10;1.00
284;DHT22;125;52.516;13.426;2022-08-03T18:49:56;28.00;1.00
284;DHT22;125;52.516;13.426;2022-08-03T18:52:29;27.90;1.00
284;DHT22;125;52.516;13.426;2022-08-03T18:55:02;27.90;1.00
284;DHT22;125;52.516;13.426;2022-08-03T18:57:37;27.80;1.00
284;DHT22;125;52.516;13.426;2022-08-03T19:00:06;27.70;1.00
284;DHT22;125;52.516;13.426;2022-08-03T19:02:47;27.70;1.00
284;DHT22;125;52.516;13.426;2022-08-03T19:05:16;27.60;1.00
284;DHT22;125;52.516;13.426;2022-08-03T19:07:48;27.50;1.00
284;DHT22;125;52.516;13.426;2022-08-03T19:10:23;27.50;1.00
284;DHT22;125;52.516;13.426;2022-08-03T19:12:52;27.40;1.00
284;DHT22;125;52.516;13.426;2022-08-03T19:15:21;27.30;1.00
284;DHT22;125;52.516;13.426;2022-08-03T19:17:51;27.20;1.00
284;DHT22;125;52.516;13.426;2022-08-03T19:20:21;27.10;1.00
284;DHT22;125;52.516;13.426;2022-08-03T19:22:49;27.00;1.00
284;DHT22;125;52.516;13.426;2022-08-03T19:25:17;26.90;1.00
284;DHT22;125;52.516;13.426;2022-08-03T19:27:45;26.80;1.00
284;DHT22;125;52.516;13.426;2022-08-03T19:30:15;26.70;1.00
284;DHT22;125;52.516;13.426;2022-08-03T19:32:57;26.60;1.00
284;DHT22;125;52.516;13.426;2022-08-03T19:35:25;26.60;1.00
284;DHT22;125;52.516;13.426;2022-08-03T19:37:51;26.50;1.00
284;DHT22;125;52.516;13.426;2022-08-03T19:40:18;26.40;1.00
284;DHT22;125;52.516;13.426;2022-08-03T19:42:46;26.30;1.00
284;DHT22;125;52.516;13.426;2022-08-03T19:45:26;26.30;1.00
284;DHT22;125;52.516;13.426;2022-08-03T19:48:00;26.10;1.00
284;DHT22;125;52.516;13.426;2022-08-03T19:50:30;26.10;1.00
284;DHT22;125;52.516;13.426;2022-08-03T19:52:59;26.00;1.00
284;DHT22;125;52.516;13.426;2022-08-03T19:55:28;25.90;1.00
284;DHT22;125;52.516;13.426;2022-08-03T19:57:55;25.90;1.00
284;DHT22;125;52.516;13.426;2022-08-03T20:00:27;25.80;1.00
284;DHT22;125;52.516;13.426;2022-08-03T20:02:55;25.80;1.00
284;DHT22;125;52.516;13.426;2022-08-03T20:05:22;25.80;1.00
284;DHT22;125;52.516;13.426;2022-08-03T20:07:49;25.70;1.00
284;DHT22;125;52.516;13.426;2022-08-03T20:10:16;25.70;1.00
284;DHT22;125;52.516;13.426;2022-08-03T20:12:44;25.60;1.00
284;DHT22;125;52.516;13.426;2022-08-03T20:15:11;25.50;1.00
284;DHT22;125;52.516;13.426;2022-08-03T20:17:40;25.40;1.00
284;DHT22;125;52.516;13.426;2022-08-03T20:20:07;25.40;1.00
284;DHT22;125;52.516;13.426;2022-08-03T20:22:35;25.40;1.00
284;DHT22;125;52.516;13.426;2022-08-03T20:25:06;25.40;1.00
284;DHT22;125;52.516;13.426;2022-08-03T20:27:38;25.30;1.00
284;DHT22;125;52.516;13.426;2022-08-03T20:30:09;25.20;1.00
284;DHT22;125;52.516;13.426;2022-08-03T20:32:36;25.20;1.00
284;DHT22;125;52.516;13.426;2022-08-03T20:35:07;25.10;1.00
284;DHT22;125;52.516;13.426;2022-08-03T20:37:34;25.00;1.00
284;DHT22;125;52.516;13.426;2022-08-03T20:40:01;25.00;1.00
284;DHT22;125;52.516;13.426;2022-08-03T20:42:27;24.90;1.00
284;DHT22;125;52.516;13.426;2022-08-03T20:44:54;24.90;1.00
284;DHT22;125;52.516;13.426;2022-08-03T20:47:21;24.80;1.00
284;DHT22;125;52.516;13.426;2022-08-03T20:49:48;24.80;1.00
284;DHT22;125;52.516;13.426;2022-08-03T20:52:17;24.70;1.00
284;DHT22;125;52.516;13.426;2022-08-03T20:54:44;24.70;1.00
284;DHT22;125;52.516;13.426;2022-08-03T20:57:12;24.60;1.00
284;DHT22;125;52.516;13.426;2022-08-03T20:59:39;24.60;1.00
284;DHT22;125;52.516;13.426;2022-08-03T21:02:06;24.60;1.00
284;DHT22;125;52.516;13.426;2022-08-03T21:04:32;24.50;1.00
284;DHT22;125;52.516;13.426;2022-08-03T21:07:02;24.40;1.00
284;DHT22;125;52.516;13.426;2022-08-03T21:09:36;24.40;1.00
284;DHT22;125;52.516;13.426;2022-08-03T21:12:06;24.40;1.00
284;DHT22;125;52.516;13.426;2022-08-03T21:14:38;24.30;1.00
284;DHT22;125;52.516;13.426;2022-08-03T21:17:07;24.20;1.00
284;DHT22;125;52.516;13.426;2022-08-03T21:19:36;24.20;1.00
284;DHT22;125;52.516;13.426;2022-08-03T21:22:06;24.10;1.00
284;DHT22;125;52.516;13.426;2022-08-03T21:24:38;24.10;1.00
284;DHT22;125;52.516;13.426;2022-08-03T21:27:06;24.00;1.00
284;DHT22;125;52.516;13.426;2022-08-03T21:29:36;24.00;1.00
284;DHT22;125;52.516;13.426;2022-08-03T21:32:03;23.90;1.00
284;DHT22;125;52.516;13.426;2022-08-03T21:34:34;23.90;1.00
284;DHT22;125;52.516;13.426;2022-08-03T21:37:00;23.80;1.00
284;DHT22;125;52.516;13.426;2022-08-03T21:39:28;23.80;1.00
284;DHT22;125;52.516;13.426;2022-08-03T21:41:56;23.80;1.00
284;DHT22;125;52.516;13.426;2022-08-03T21:44:23;23.70;1.00
284;DHT22;125;52.516;13.426;2022-08-03T21:46:50;23.70;1.00
284;DHT22;125;52.516;13.426;2022-08-03T21:49:19;23.70;1.00
284;DHT22;125;52.516;13.426;2022-08-03T21:51:48;23.60;1.00
284;DHT22;125;52.516;13.426;2022-08-03T21:54:15;23.80;1.00
284;DHT22;125;52.516;13.426;2022-08-03T21:56:46;23.70;1.00
284;DHT22;125;52.516;13.426;2022-08-03T21:59:17;23.50;1.00
284;DHT22;125;52.516;13.426;2022-08-03T22:01:45;23.60;1.00
284;DHT22;125;52.516;13.426;2022-08-03T22:04:12;23.60;1.00
284;DHT22;125;52.516;13.426;2022-08-03T22:06:43;23.20;1.00
284;DHT22;125;52.516;13.426;2022-08-03T22:09:09;23.70;1.00
284;DHT22;125;52.516;13.426;2022-08-03T22:11:36;23.50;1.00
284;DHT22;125;52.516;13.426;2022-08-03T22:14:03;23.60;1.00
284;DHT22;125;52.516;13.426;2022-08-03T22:16:31;23.60;1.00
284;DHT22;125;52.516;13.426;2022-08-03T22:18:58;23.50;1.00
284;DHT22;125;52.516;13.426;2022-08-03T22:21:28;23.60;1.00
284;DHT22;125;52.516;13.426;2022-08-03T22:23:57;23.60;1.00
284;DHT22;125;52.516;13.426;2022-08-03T22:26:27;23.50;1.00
284;DHT22;125;52.516;13.426;2022-08-03T22:28:54;23.60;1.00
284;DHT22;125;52.516;13.426;2022-08-03T22:31:22;23.50;1.00
284;DHT22;125;52.516;13.426;2022-08-03T22:33:51;23.50;1.00
284;DHT22;125;52.516;13.426;2022-08-03T22:36:20;23.50;1.00
284;DHT22;125;52.516;13.426;2022-08-03T22:38:49;23.40;1.00
284;DHT22;125;52.516;13.426;2022-08-03T22:41:18;23.40;1.00
284;DHT22;125;52.516;13.426;2022-08-03T22:43:44;23.40;1.00
284;DHT22;125;52.516;13.426;2022-08-03T22:46:12;23.40;1.00
284;DHT22;125;52.516;13.426;2022-08-03T22:48:39;23.30;1.00
284;DHT22;125;52.516;13.426;2022-08-03T22:51:08;23.40;1.00
284;DHT22;125;52.516;13.426;2022-08-03T22:53:35;23.20;1.00
284;DHT22;125;52.516;13.426;2022-08-03T22:56:02;23.20;1.00
284;DHT22;125;52.516;13.426;2022-08-03T22:58:29;23.10;1.00
284;DHT22;125;52.516;13.426;2022-08-03T23:01:00;23.20;1.00
284;DHT22;125;52.516;13.426;2022-08-03T23:03:31;23.00;1.00
284;DHT22;125;52.516;13.426;2022-08-03T23:05:59;23.30;1.00
284;DHT22;125;52.516;13.426;2022-08-03T23:08:30;23.20;1.00
284;DHT22;125;52.516;13.426;2022-08-03T23:11:02;23.20;1.00
284;DHT22;125;52.516;13.426;2022-08-03T23:13:30;23.30;1.00
284;DHT22;125;52.516;13.426;2022-08-03T23:15:58;23.30;1.00
284;DHT22;125;52.516;13.426;2022-08-03T23:18:28;23.30;1.00
284;DHT22;125;52.516;13.426;2022-08-03T23:20:57;23.20;1.00
284;DHT22;125;52.516;13.426;2022-08-03T23:23:24;23.20;1.00
284;DHT22;125;52.516;13.426;2022-08-03T23:25:52;23.20;1.00
284;DHT22;125;52.516;13.426;2022-08-03T23:28:19;23.30;1.00
284;DHT22;125;52.516;13.426;2022-08-03T23:30:48;23.10;1.00
284;DHT22;125;52.516;13.426;2022-08-03T23:33:16;23.20;1.00
284;DHT22;125;52.516;13.426;2022-08-03T23:35:43;23.10;1.00
284;DHT22;125;52.516;13.426;2022-08-03T23:38:22;23.00;1.00
284;DHT22;125;52.516;13.426;2022-08-03T23:40:49;23.00;1.00
284;DHT22;125;52.516;13.426;2022-08-03T23:43:18;23.20;1.00
284;DHT22;125;52.516;13.426;2022-08-03T23:45:47;23.00;1.00
284;DHT22;125;52.516;13.426;2022-08-03T23:48:14;23.00;1.00
284;DHT22;125;52.516;13.426;2022-08-03T23:50:44;23.10;1.00
284;DHT22;125;52.516;13.426;2022-08-03T23:53:16;23.10;1.00
284;DHT22;125;52.516;13.426;2022-08-03T23:55:50;22.80;1.00
284;DHT22;125;52.516;13.426;2022-08-03T23:58:32;23.00;1.00
